sensor_id;sensor_type;location;lat;lon;timestamp;temperature;humidity
4324;DHT22;2175;51.018;6.994;2022-11-18T00:00:52;9.90;99.90
4324;DHT22;2175;51.018;6.994;2022-11-18T00:03:18;9.90;99.90
4324;DHT22;2175;51.018;6.994;2022-11-18T00:05:52;9.90;99.90
4324;DHT22;2175;51.018;6.994;2022-11-18T00:08:18;9.90;99.90
4324;DHT22;2175;51.018;6.994;2022-11-18T00:10:43;9.90;99.90
4324;DHT22;2175;51.018;6.994;2022-11-18T00:13:11;9.90;99.90
4324;DHT22;2175;51.018;6.994;2022-11-18T00:16:00;9.90;99.90
4324;DHT22;2175;51.018;6.994;2022-11-18T00:18:26;9.90;99.90
4324;DHT22;2175;51.018;6.994;2022-11-18T00:20:52;10.00;99.90
4324;DHT22;2175;51.018;6.994;2022-11-18T00:23:17;10.00;99.90
4324;DHT22;2175;51.018;6.994;2022-11-18T00:25:43;10.00;99.90
4324;DHT22;2175;51.018;6.994;2022-11-18T00:28:08;9.90;99.90
4324;DHT22;2175;51.018;6.994;2022-11-18T00:30:34;9.80;99.90
4324;DHT22;2175;51.018;6.994;2022-11-18T00:32:59;9.80;99.90
4324;DHT22;2175;51.018;6.994;2022-11-18T00:35:25;9.70;99.90
4324;DHT22;2175;51.018;6.994;2022-11-18T00:37:51;9.80;99.90
4324;DHT22;2175;51.018;6.994;2022-11-18T00:40:16;9.70;99.90
4324;DHT22;2175;51.018;6.994;2022-11-18T00:42:42;9.70;99.90
4324;DHT22;2175;51.018;6.994;2022-11-18T00:45:20;9.70;99.90
4324;DHT22;2175;51.018;6.994;2022-11-18T00:47:46;9.70;99.90
4324;DHT22;2175;51.018;6.994;2022-11-18T00:50:12;9.70;99.90
4324;DHT22;2175;51.018;6.994;2022-11-18T00:52:38;9.70;99.90
4324;DHT22;2175;51.018;6.994;2022-11-18T00:55:04;9.80;99.90
4324;DHT22;2175;51.018;6.994;2022-11-18T00:57:29;9.80;99.90
4324;DHT22;2175;51.018;6.994;2022-11-18T00:59:55;9.90;99.90
4324;DHT22;2175;51.018;6.994;2022-11-18T01:02:20;9.90;99.90
4324;DHT22;2175;51.018;6.994;2022-11-18T01:04:46;9.90;99.90
4324;DHT22;2175;51.018;6.994;2022-11-18T01:07:11;9.90;99.90
4324;DHT22;2175;51.018;6.994;2022-11-18T01:09:37;9.90;99.90
4324;DHT22;2175;51.018;6.994;2022-11-18T01:12:03;9.90;99.90
4324;DHT22;2175;51.018;6.994;2022-11-18T01:14:47;9.90;99.90
4324;DHT22;2175;51.018;6.994;2022-11-18T01:17:12;9.90;99.90
4324;DHT22;2175;51.018;6.994;2022-11-18T01:19:38;9.90;99.90
4324;DHT22;2175;51.018;6.994;2022-11-18T01:22:04;9.90;99.90
4324;DHT22;2175;51.018;6.994;2022-11-18T01:24:31;9.90;99.90
4324;DHT22;2175;51.018;6.994;2022-11-18T01:26:57;9.80;99.90
4324;DHT22;2175;51.018;6.994;2022-11-18T01:29:23;9.90;99.90
4324;DHT22;2175;51.018;6.994;2022-11-18T01:31:48;9.80;99.90
4324;DHT22;2175;51.018;6.994;2022-11-18T01:34:14;9.90;99.90
4324;DHT22;2175;51.018;6.994;2022-11-18T01:36:40;9.90;99.90
4324;DHT22;2175;51.018;6.994;2022-11-18T01:39:05;9.80;99.90
4324;DHT22;2175;51.018;6.994;2022-11-18T01:41:31;10.00;99.90
4324;DHT22;2175;51.018;6.994;2022-11-18T01:44:05;9.90;99.90
4324;DHT22;2175;51.018;6.994;2022-11-18T01:46:33;9.90;99.90
4324;DHT22;2175;51.018;6.994;2022-11-18T01:49:08;9.90;99.90
4324;DHT22;2175;51.018;6.994;2022-11-18T01:51:50;9.80;99.90
4324;DHT22;2175;51.018;6.994;2022-11-18T01:54:21;9.80;99.90
4324;DHT22;2175;51.018;6.994;2022-11-18T01:56:53;9.80;99.90
4324;DHT22;2175;51.018;6.994;2022-11-18T01:59:25;9.80;99.90
4324;DHT22;2175;51.018;6.994;2022-11-18T02:01:54;9.80;99.90
4324;DHT22;2175;51.018;6.994;2022-11-18T02:04:20;9.80;99.90
4324;DHT22;2175;51.018;6.994;2022-11-18T02:06:47;9.90;99.90
4324;DHT22;2175;51.018;6.994;2022-11-18T02:09:14;9.80;99.90
4324;DHT22;2175;51.018;6.994;2022-11-18T02:11:40;9.90;99.90
4324;DHT22;2175;51.018;6.994;2022-11-18T02:14:28;9.90;99.90
4324;DHT22;2175;51.018;6.994;2022-11-18T02:17:13;9.90;99.90
4324;DHT22;2175;51.018;6.994;2022-11-18T02:30:17;9.90;99.90
4324;DHT22;2175;51.018;6.994;2022-11-18T02:33:00;9.90;99.90
4324;DHT22;2175;51.018;6.994;2022-11-18T02:38:00;9.90;99.90
4324;DHT22;2175;51.018;6.994;2022-11-18T02:40:34;9.90;99.90
4324;DHT22;2175;51.018;6.994;2022-11-18T02:43:09;9.90;99.90
4324;DHT22;2175;51.018;6.994;2022-11-18T02:45:38;9.90;99.90
4324;DHT22;2175;51.018;6.994;2022-11-18T02:48:08;9.90;99.90
4324;DHT22;2175;51.018;6.994;2022-11-18T02:50:36;9.90;99.90
4324;DHT22;2175;51.018;6.994;2022-11-18T02:53:04;9.90;99.90
4324;DHT22;2175;51.018;6.994;2022-11-18T02:55:32;10.00;99.90
4324;DHT22;2175;51.018;6.994;2022-11-18T02:57:59;9.90;99.90
4324;DHT22;2175;51.018;6.994;2022-11-18T03:00:26;9.80;99.90
4324;DHT22;2175;51.018;6.994;2022-11-18T03:02:51;9.80;99.90
4324;DHT22;2175;51.018;6.994;2022-11-18T03:05:41;9.80;99.90
4324;DHT22;2175;51.018;6.994;2022-11-18T03:08:18;9.90;99.90
4324;DHT22;2175;51.018;6.994;2022-11-18T03:16:22;9.80;99.90
4324;DHT22;2175;51.018;6.994;2022-11-18T03:21:46;9.70;99.90
4324;DHT22;2175;51.018;6.994;2022-11-18T03:24:28;9.60;99.90
4324;DHT22;2175;51.018;6.994;2022-11-18T03:27:44;9.70;99.90
4324;DHT22;2175;51.018;6.994;2022-11-18T03:29:53;9.60;99.90
4324;DHT22;2175;51.018;6.994;2022-11-18T03:32:26;9.70;99.90
4324;DHT22;2175;51.018;6.994;2022-11-18T03:34:58;9.60;99.90
4324;DHT22;2175;51.018;6.994;2022-11-18T03:37:27;9.50;99.90
4324;DHT22;2175;51.018;6.994;2022-11-18T03:40:05;9.60;99.90
4324;DHT22;2175;51.018;6.994;2022-11-18T03:42:36;9.60;99.90
4324;DHT22;2175;51.018;6.994;2022-11-18T03:45:24;9.70;99.90
4324;DHT22;2175;51.018;6.994;2022-11-18T03:48:02;9.60;99.90
4324;DHT22;2175;51.018;6.994;2022-11-18T03:50:32;9.70;99.90
4324;DHT22;2175;51.018;6.994;2022-11-18T03:53:00;9.70;99.90
4324;DHT22;2175;51.018;6.994;2022-11-18T03:55:29;9.60;99.90
4324;DHT22;2175;51.018;6.994;2022-11-18T03:58:01;9.60;99.90
4324;DHT22;2175;51.018;6.994;2022-11-18T04:00:32;9.60;99.90
4324;DHT22;2175;51.018;6.994;2022-11-18T04:02:58;9.60;99.90
4324;DHT22;2175;51.018;6.994;2022-11-18T04:05:24;9.70;99.90
4324;DHT22;2175;51.018;6.994;2022-11-18T04:07:56;9.70;99.90
4324;DHT22;2175;51.018;6.994;2022-11-18T04:10:30;9.60;99.90
4324;DHT22;2175;51.018;6.994;2022-11-18T04:13:05;9.60;99.90
4324;DHT22;2175;51.018;6.994;2022-11-18T04:15:32;9.60;99.90
4324;DHT22;2175;51.018;6.994;2022-11-18T04:18:00;9.60;99.90
4324;DHT22;2175;51.018;6.994;2022-11-18T04:20:26;9.70;99.90
4324;DHT22;2175;51.018;6.994;2022-11-18T04:22:52;9.60;99.90
4324;DHT22;2175;51.018;6.994;2022-11-18T04:25:18;9.60;99.90
4324;DHT22;2175;51.018;6.994;2022-11-18T04:27:44;9.60;99.90
4324;DHT22;2175;51.018;6.994;2022-11-18T04:30:10;9.50;99.90
4324;DHT22;2175;51.018;6.994;2022-11-18T04:32:36;9.60;99.90
4324;DHT22;2175;51.018;6.994;2022-11-18T04:35:01;9.60;99.90
4324;DHT22;2175;51.018;6.994;2022-11-18T04:37:27;9.50;99.90
4324;DHT22;2175;51.018;6.994;2022-11-18T04:39:53;9.50;99.90
4324;DHT22;2175;51.018;6.994;2022-11-18T04:42:18;9.50;99.90
4324;DHT22;2175;51.018;6.994;2022-11-18T04:44:44;9.50;99.90
4324;DHT22;2175;51.018;6.994;2022-11-18T04:47:09;9.50;99.90
4324;DHT22;2175;51.018;6.994;2022-11-18T04:49:35;9.60;99.90
4324;DHT22;2175;51.018;6.994;2022-11-18T04:52:01;9.50;99.90
4324;DHT22;2175;51.018;6.994;2022-11-18T04:54:27;9.60;99.90
4324;DHT22;2175;51.018;6.994;2022-11-18T04:56:53;9.60;99.90
4324;DHT22;2175;51.018;6.994;2022-11-18T04:59:24;9.60;99.90
4324;DHT22;2175;51.018;6.994;2022-11-18T05:01:51;9.60;99.90
4324;DHT22;2175;51.018;6.994;2022-11-18T05:04:20;9.60;99.90
4324;DHT22;2175;51.018;6.994;2022-11-18T05:06:45;9.70;99.90
4324;DHT22;2175;51.018;6.994;2022-11-18T05:09:11;9.70;99.90
4324;DHT22;2175;51.018;6.994;2022-11-18T05:11:37;9.70;99.90
4324;DHT22;2175;51.018;6.994;2022-11-18T05:14:24;9.80;99.90
4324;DHT22;2175;51.018;6.994;2022-11-18T05:16:51;9.70;99.90
4324;DHT22;2175;51.018;6.994;2022-11-18T05:19:17;9.60;99.90
4324;DHT22;2175;51.018;6.994;2022-11-18T05:21:43;9.60;99.90
4324;DHT22;2175;51.018;6.994;2022-11-18T05:24:08;9.60;99.90
4324;DHT22;2175;51.018;6.994;2022-11-18T05:26:34;9.50;99.90
4324;DHT22;2175;51.018;6.994;2022-11-18T05:28:59;9.50;99.90
4324;DHT22;2175;51.018;6.994;2022-11-18T05:31:25;9.50;99.90
4324;DHT22;2175;51.018;6.994;2022-11-18T05:33:51;9.60;99.90
4324;DHT22;2175;51.018;6.994;2022-11-18T05:36:18;9.60;99.90
4324;DHT22;2175;51.018;6.994;2022-11-18T05:38:44;9.50;99.90
4324;DHT22;2175;51.018;6.994;2022-11-18T05:41:10;9.60;99.90
4324;DHT22;2175;51.018;6.994;2022-11-18T05:43:59;9.60;99.90
4324;DHT22;2175;51.018;6.994;2022-11-18T05:46:26;9.50;99.90
4324;DHT22;2175;51.018;6.994;2022-11-18T05:48:52;9.60;99.90
4324;DHT22;2175;51.018;6.994;2022-11-18T05:51:18;9.60;99.90
4324;DHT22;2175;51.018;6.994;2022-11-18T05:53:43;9.60;99.90
4324;DHT22;2175;51.018;6.994;2022-11-18T05:56:22;9.50;99.90
4324;DHT22;2175;51.018;6.994;2022-11-18T05:58:49;9.60;99.90
4324;DHT22;2175;51.018;6.994;2022-11-18T06:01:26;9.60;99.90
4324;DHT22;2175;51.018;6.994;2022-11-18T06:03:52;9.50;99.90
4324;DHT22;2175;51.018;6.994;2022-11-18T06:06:20;9.60;99.90
4324;DHT22;2175;51.018;6.994;2022-11-18T06:08:56;9.50;99.90
4324;DHT22;2175;51.018;6.994;2022-11-18T06:11:25;9.50;99.90
4324;DHT22;2175;51.018;6.994;2022-11-18T06:14:11;9.40;99.90
4324;DHT22;2175;51.018;6.994;2022-11-18T06:16:43;9.40;99.90
4324;DHT22;2175;51.018;6.994;2022-11-18T06:19:09;9.40;99.90
4324;DHT22;2175;51.018;6.994;2022-11-18T06:21:35;9.30;99.90
4324;DHT22;2175;51.018;6.994;2022-11-18T06:24:01;9.30;99.90
4324;DHT22;2175;51.018;6.994;2022-11-18T06:26:27;9.20;99.90
4324;DHT22;2175;51.018;6.994;2022-11-18T06:28:54;9.20;99.90
4324;DHT22;2175;51.018;6.994;2022-11-18T06:31:20;9.20;99.90
4324;DHT22;2175;51.018;6.994;2022-11-18T06:33:46;9.20;99.90
4324;DHT22;2175;51.018;6.994;2022-11-18T06:36:12;9.20;99.90
4324;DHT22;2175;51.018;6.994;2022-11-18T06:38:37;9.30;99.90
4324;DHT22;2175;51.018;6.994;2022-11-18T06:41:03;9.30;99.90
4324;DHT22;2175;51.018;6.994;2022-11-18T06:43:30;9.40;99.90
4324;DHT22;2175;51.018;6.994;2022-11-18T06:46:11;9.30;99.90
4324;DHT22;2175;51.018;6.994;2022-11-18T06:48:55;9.40;99.90
4324;DHT22;2175;51.018;6.994;2022-11-18T06:51:21;9.40;99.90
4324;DHT22;2175;51.018;6.994;2022-11-18T06:53:47;9.50;99.90
4324;DHT22;2175;51.018;6.994;2022-11-18T06:56:15;9.50;99.90
4324;DHT22;2175;51.018;6.994;2022-11-18T06:58:40;9.50;99.90
4324;DHT22;2175;51.018;6.994;2022-11-18T07:01:19;9.50;99.90
4324;DHT22;2175;51.018;6.994;2022-11-18T07:03:46;9.60;99.90
4324;DHT22;2175;51.018;6.994;2022-11-18T07:06:16;9.60;99.90
4324;DHT22;2175;51.018;6.994;2022-11-18T07:08:42;9.50;99.90
4324;DHT22;2175;51.018;6.994;2022-11-18T07:11:11;9.60;99.90
4324;DHT22;2175;51.018;6.994;2022-11-18T07:13:37;9.70;99.90
4324;DHT22;2175;51.018;6.994;2022-11-18T07:16:11;9.70;99.90
4324;DHT22;2175;51.018;6.994;2022-11-18T07:18:39;9.70;99.90
4324;DHT22;2175;51.018;6.994;2022-11-18T07:21:10;9.70;99.90
4324;DHT22;2175;51.018;6.994;2022-11-18T07:23:36;9.70;99.90
4324;DHT22;2175;51.018;6.994;2022-11-18T07:26:02;9.70;99.90
4324;DHT22;2175;51.018;6.994;2022-11-18T07:28:28;9.70;99.90
4324;DHT22;2175;51.018;6.994;2022-11-18T07:31:12;9.70;99.90
4324;DHT22;2175;51.018;6.994;2022-11-18T07:33:40;9.70;99.90
4324;DHT22;2175;51.018;6.994;2022-11-18T07:36:30;9.70;99.90
4324;DHT22;2175;51.018;6.994;2022-11-18T07:39:00;9.80;99.90
4324;DHT22;2175;51.018;6.994;2022-11-18T07:41:28;9.80;99.90
4324;DHT22;2175;51.018;6.994;2022-11-18T07:43:55;9.80;99.90
4324;DHT22;2175;51.018;6.994;2022-11-18T07:46:26;9.80;99.90
4324;DHT22;2175;51.018;6.994;2022-11-18T07:48:54;9.90;99.90
4324;DHT22;2175;51.018;6.994;2022-11-18T07:51:22;9.90;99.90
4324;DHT22;2175;51.018;6.994;2022-11-18T07:53:48;9.80;99.90
4324;DHT22;2175;51.018;6.994;2022-11-18T07:56:15;9.90;99.90
4324;DHT22;2175;51.018;6.994;2022-11-18T07:58:42;9.90;99.90
4324;DHT22;2175;51.018;6.994;2022-11-18T08:01:13;9.90;99.90
4324;DHT22;2175;51.018;6.994;2022-11-18T08:03:40;9.90;99.90
4324;DHT22;2175;51.018;6.994;2022-11-18T08:06:07;10.00;99.90
4324;DHT22;2175;51.018;6.994;2022-11-18T08:08:33;10.00;99.90
4324;DHT22;2175;51.018;6.994;2022-11-18T08:11:00;10.00;99.90
4324;DHT22;2175;51.018;6.994;2022-11-18T08:13:27;10.10;99.90
4324;DHT22;2175;51.018;6.994;2022-11-18T08:15:54;10.10;99.90
4324;DHT22;2175;51.018;6.994;2022-11-18T08:18:20;10.20;99.90
4324;DHT22;2175;51.018;6.994;2022-11-18T08:20:46;10.20;99.90
4324;DHT22;2175;51.018;6.994;2022-11-18T08:23:12;10.30;99.90
4324;DHT22;2175;51.018;6.994;2022-11-18T08:25:39;10.30;99.90
4324;DHT22;2175;51.018;6.994;2022-11-18T08:28:05;10.30;99.90
4324;DHT22;2175;51.018;6.994;2022-11-18T08:30:32;10.30;99.90
4324;DHT22;2175;51.018;6.994;2022-11-18T08:32:58;10.40;99.90
4324;DHT22;2175;51.018;6.994;2022-11-18T08:35:29;10.40;99.90
4324;DHT22;2175;51.018;6.994;2022-11-18T08:38:16;10.40;99.90
4324;DHT22;2175;51.018;6.994;2022-11-18T08:40:44;10.40;99.90
4324;DHT22;2175;51.018;6.994;2022-11-18T08:43:11;10.60;99.90
4324;DHT22;2175;51.018;6.994;2022-11-18T08:45:38;10.60;99.90
4324;DHT22;2175;51.018;6.994;2022-11-18T08:48:04;10.60;99.90
4324;DHT22;2175;51.018;6.994;2022-11-18T08:50:30;10.60;99.90
4324;DHT22;2175;51.018;6.994;2022-11-18T08:52:55;10.60;99.90
4324;DHT22;2175;51.018;6.994;2022-11-18T08:55:21;10.60;99.90
4324;DHT22;2175;51.018;6.994;2022-11-18T08:57:46;10.80;99.90
4324;DHT22;2175;51.018;6.994;2022-11-18T09:00:13;10.90;99.90
4324;DHT22;2175;51.018;6.994;2022-11-18T09:02:39;10.90;99.90
4324;DHT22;2175;51.018;6.994;2022-11-18T09:05:04;10.90;99.90
4324;DHT22;2175;51.018;6.994;2022-11-18T09:07:30;11.10;99.90
4324;DHT22;2175;51.018;6.994;2022-11-18T09:09:56;11.10;99.90
4324;DHT22;2175;51.018;6.994;2022-11-18T09:12:21;11.10;99.90
4324;DHT22;2175;51.018;6.994;2022-11-18T09:14:47;11.20;99.90
4324;DHT22;2175;51.018;6.994;2022-11-18T09:17:12;11.20;99.90
4324;DHT22;2175;51.018;6.994;2022-11-18T09:19:41;11.20;99.90
4324;DHT22;2175;51.018;6.994;2022-11-18T09:22:07;11.10;99.90
4324;DHT22;2175;51.018;6.994;2022-11-18T09:24:33;11.10;99.90
4324;DHT22;2175;51.018;6.994;2022-11-18T09:27:02;11.10;99.90
4324;DHT22;2175;51.018;6.994;2022-11-18T09:29:28;11.20;99.90
4324;DHT22;2175;51.018;6.994;2022-11-18T09:31:54;11.20;99.90
4324;DHT22;2175;51.018;6.994;2022-11-18T09:34:20;11.10;99.90
4324;DHT22;2175;51.018;6.994;2022-11-18T09:36:46;11.10;99.90
4324;DHT22;2175;51.018;6.994;2022-11-18T09:39:12;11.10;99.90
4324;DHT22;2175;51.018;6.994;2022-11-18T09:47:27;11.10;99.90
4324;DHT22;2175;51.018;6.994;2022-11-18T09:49:55;11.20;99.90
4324;DHT22;2175;51.018;6.994;2022-11-18T09:52:31;11.20;99.90
4324;DHT22;2175;51.018;6.994;2022-11-18T09:54:58;11.10;99.90
4324;DHT22;2175;51.018;6.994;2022-11-18T09:57:36;11.10;99.90
4324;DHT22;2175;51.018;6.994;2022-11-18T10:00:12;11.20;99.90
4324;DHT22;2175;51.018;6.994;2022-11-18T10:05:30;11.40;99.90
4324;DHT22;2175;51.018;6.994;2022-11-18T10:11:12;11.40;99.90
4324;DHT22;2175;51.018;6.994;2022-11-18T10:18:51;11.50;99.90
4324;DHT22;2175;51.018;6.994;2022-11-18T10:24:03;11.60;99.90
4324;DHT22;2175;51.018;6.994;2022-11-18T10:26:33;11.80;99.90
4324;DHT22;2175;51.018;6.994;2022-11-18T10:28:59;11.90;99.90
4324;DHT22;2175;51.018;6.994;2022-11-18T10:31:24;11.90;99.90
4324;DHT22;2175;51.018;6.994;2022-11-18T10:33:58;11.90;99.90
4324;DHT22;2175;51.018;6.994;2022-11-18T10:36:25;11.90;99.90
4324;DHT22;2175;51.018;6.994;2022-11-18T10:39:14;12.00;99.90
4324;DHT22;2175;51.018;6.994;2022-11-18T10:41:46;12.10;99.90
4324;DHT22;2175;51.018;6.994;2022-11-18T10:44:34;12.10;99.90
4324;DHT22;2175;51.018;6.994;2022-11-18T10:47:30;12.00;99.90
4324;DHT22;2175;51.018;6.994;2022-11-18T10:49:58;12.00;99.90
4324;DHT22;2175;51.018;6.994;2022-11-18T10:52:25;12.20;99.90
4324;DHT22;2175;51.018;6.994;2022-11-18T10:55:27;12.20;99.90
4324;DHT22;2175;51.018;6.994;2022-11-18T10:58:00;12.20;99.90
4324;DHT22;2175;51.018;6.994;2022-11-18T11:00:34;12.20;99.90
4324;DHT22;2175;51.018;6.994;2022-11-18T11:03:35;12.50;99.90
4324;DHT22;2175;51.018;6.994;2022-11-18T11:08:54;12.80;99.90
4324;DHT22;2175;51.018;6.994;2022-11-18T11:11:26;12.70;99.90
4324;DHT22;2175;51.018;6.994;2022-11-18T11:17:01;12.70;99.90
4324;DHT22;2175;51.018;6.994;2022-11-18T11:19:55;12.70;99.90
4324;DHT22;2175;51.018;6.994;2022-11-18T11:22:23;12.70;99.90
4324;DHT22;2175;51.018;6.994;2022-11-18T11:24:48;12.80;99.90
4324;DHT22;2175;51.018;6.994;2022-11-18T11:27:22;12.90;99.90
4324;DHT22;2175;51.018;6.994;2022-11-18T11:30:13;12.90;99.90
4324;DHT22;2175;51.018;6.994;2022-11-18T11:38:25;12.70;99.90
4324;DHT22;2175;51.018;6.994;2022-11-18T11:41:21;12.60;99.90
4324;DHT22;2175;51.018;6.994;2022-11-18T11:46:36;12.20;99.90
4324;DHT22;2175;51.018;6.994;2022-11-18T11:49:15;12.00;99.90
4324;DHT22;2175;51.018;6.994;2022-11-18T11:57:19;11.90;99.90
4324;DHT22;2175;51.018;6.994;2022-11-18T11:59:59;11.80;99.90
4324;DHT22;2175;51.018;6.994;2022-11-18T12:03:22;11.80;99.90
4324;DHT22;2175;51.018;6.994;2022-11-18T12:05:54;11.80;99.90
4324;DHT22;2175;51.018;6.994;2022-11-18T12:08:29;11.80;99.90
4324;DHT22;2175;51.018;6.994;2022-11-18T12:13:52;11.70;99.90
4324;DHT22;2175;51.018;6.994;2022-11-18T12:19:37;11.70;99.90
4324;DHT22;2175;51.018;6.994;2022-11-18T12:22:03;11.80;99.90
4324;DHT22;2175;51.018;6.994;2022-11-18T12:42:44;11.80;99.90
4324;DHT22;2175;51.018;6.994;2022-11-18T12:48:33;11.90;99.90
4324;DHT22;2175;51.018;6.994;2022-11-18T12:56:54;11.90;99.90
4324;DHT22;2175;51.018;6.994;2022-11-18T12:59:30;11.90;99.90
4324;DHT22;2175;51.018;6.994;2022-11-18T13:02:17;11.90;99.90
4324;DHT22;2175;51.018;6.994;2022-11-18T13:04:43;11.80;99.90
4324;DHT22;2175;51.018;6.994;2022-11-18T13:07:11;11.80;99.90
4324;DHT22;2175;51.018;6.994;2022-11-18T13:09:56;11.90;99.90
4324;DHT22;2175;51.018;6.994;2022-11-18T13:12:26;11.90;99.90
4324;DHT22;2175;51.018;6.994;2022-11-18T13:14:52;11.90;99.90
4324;DHT22;2175;51.018;6.994;2022-11-18T13:17:41;11.90;99.90
4324;DHT22;2175;51.018;6.994;2022-11-18T13:20:41;11.90;99.90
4324;DHT22;2175;51.018;6.994;2022-11-18T13:26:05;11.90;99.90
4324;DHT22;2175;51.018;6.994;2022-11-18T13:34:07;12.00;99.90
4324;DHT22;2175;51.018;6.994;2022-11-18T13:36:33;12.00;99.90
4324;DHT22;2175;51.018;6.994;2022-11-18T13:39:03;12.10;99.90
4324;DHT22;2175;51.018;6.994;2022-11-18T13:41:33;12.10;99.90
4324;DHT22;2175;51.018;6.994;2022-11-18T13:46:48;12.20;99.90
4324;DHT22;2175;51.018;6.994;2022-11-18T13:49:30;12.10;99.90
4324;DHT22;2175;51.018;6.994;2022-11-18T13:51:58;12.10;99.90
4324;DHT22;2175;51.018;6.994;2022-11-18T13:54:25;12.10;99.90
4324;DHT22;2175;51.018;6.994;2022-11-18T13:56:52;12.20;99.90
4324;DHT22;2175;51.018;6.994;2022-11-18T13:59:20;12.20;99.90
4324;DHT22;2175;51.018;6.994;2022-11-18T14:01:53;12.20;99.90
4324;DHT22;2175;51.018;6.994;2022-11-18T14:04:21;12.20;99.90
4324;DHT22;2175;51.018;6.994;2022-11-18T14:06:47;12.20;99.90
4324;DHT22;2175;51.018;6.994;2022-11-18T14:09:29;12.20;99.90
4324;DHT22;2175;51.018;6.994;2022-11-18T14:14:34;12.10;99.90
4324;DHT22;2175;51.018;6.994;2022-11-18T14:17:21;12.10;99.90
4324;DHT22;2175;51.018;6.994;2022-11-18T14:19:51;12.10;99.90
4324;DHT22;2175;51.018;6.994;2022-11-18T14:22:23;12.00;99.90
4324;DHT22;2175;51.018;6.994;2022-11-18T14:25:00;12.10;99.90
4324;DHT22;2175;51.018;6.994;2022-11-18T14:27:34;12.00;99.90
4324;DHT22;2175;51.018;6.994;2022-11-18T14:35:30;12.30;99.90
4324;DHT22;2175;51.018;6.994;2022-11-18T14:37:56;12.30;99.90
4324;DHT22;2175;51.018;6.994;2022-11-18T14:40:22;12.20;99.90
4324;DHT22;2175;51.018;6.994;2022-11-18T14:42:47;12.20;99.90
4324;DHT22;2175;51.018;6.994;2022-11-18T14:45:13;12.20;99.90
4324;DHT22;2175;51.018;6.994;2022-11-18T14:47:39;12.00;99.90
4324;DHT22;2175;51.018;6.994;2022-11-18T14:50:11;12.10;99.90
4324;DHT22;2175;51.018;6.994;2022-11-18T14:52:37;12.10;99.90
4324;DHT22;2175;51.018;6.994;2022-11-18T14:55:03;12.00;99.90
4324;DHT22;2175;51.018;6.994;2022-11-18T14:57:29;12.00;99.90
4324;DHT22;2175;51.018;6.994;2022-11-18T14:59:54;11.80;99.90
4324;DHT22;2175;51.018;6.994;2022-11-18T15:02:20;11.80;99.90
4324;DHT22;2175;51.018;6.994;2022-11-18T15:04:46;11.80;99.90
4324;DHT22;2175;51.018;6.994;2022-11-18T15:07:14;11.80;99.90
4324;DHT22;2175;51.018;6.994;2022-11-18T15:09:40;11.80;99.90
4324;DHT22;2175;51.018;6.994;2022-11-18T15:12:06;11.70;99.90
4324;DHT22;2175;51.018;6.994;2022-11-18T15:14:32;11.70;99.90
4324;DHT22;2175;51.018;6.994;2022-11-18T15:17:00;11.70;99.90
4324;DHT22;2175;51.018;6.994;2022-11-18T15:19:26;11.80;99.90
4324;DHT22;2175;51.018;6.994;2022-11-18T15:21:51;11.70;99.90
4324;DHT22;2175;51.018;6.994;2022-11-18T15:24:17;11.60;99.90
4324;DHT22;2175;51.018;6.994;2022-11-18T15:26:45;11.60;99.90
4324;DHT22;2175;51.018;6.994;2022-11-18T15:29:19;11.70;99.90
4324;DHT22;2175;51.018;6.994;2022-11-18T15:31:46;11.70;99.90
4324;DHT22;2175;51.018;6.994;2022-11-18T15:34:12;11.60;99.90
4324;DHT22;2175;51.018;6.994;2022-11-18T15:36:38;11.50;99.90
4324;DHT22;2175;51.018;6.994;2022-11-18T15:39:04;11.40;99.90
4324;DHT22;2175;51.018;6.994;2022-11-18T15:41:31;11.40;99.90
4324;DHT22;2175;51.018;6.994;2022-11-18T15:43:58;11.30;99.90
4324;DHT22;2175;51.018;6.994;2022-11-18T15:46:25;11.20;99.90
4324;DHT22;2175;51.018;6.994;2022-11-18T15:48:52;11.20;99.90
4324;DHT22;2175;51.018;6.994;2022-11-18T15:51:18;11.10;99.90
4324;DHT22;2175;51.018;6.994;2022-11-18T15:53:44;11.00;99.90
4324;DHT22;2175;51.018;6.994;2022-11-18T15:59:02;10.80;99.90
4324;DHT22;2175;51.018;6.994;2022-11-18T16:01:33;10.70;99.90
4324;DHT22;2175;51.018;6.994;2022-11-18T16:03:59;10.60;99.90
4324;DHT22;2175;51.018;6.994;2022-11-18T16:06:25;10.50;99.90
4324;DHT22;2175;51.018;6.994;2022-11-18T16:08:51;10.40;99.90
4324;DHT22;2175;51.018;6.994;2022-11-18T16:11:18;10.30;99.90
4324;DHT22;2175;51.018;6.994;2022-11-18T16:14:08;10.30;99.90
4324;DHT22;2175;51.018;6.994;2022-11-18T16:16:35;10.10;99.90
4324;DHT22;2175;51.018;6.994;2022-11-18T16:19:04;10.10;99.90
4324;DHT22;2175;51.018;6.994;2022-11-18T16:21:32;10.00;99.90
4324;DHT22;2175;51.018;6.994;2022-11-18T16:23:59;9.90;99.90
4324;DHT22;2175;51.018;6.994;2022-11-18T16:26:26;9.90;99.90
4324;DHT22;2175;51.018;6.994;2022-11-18T16:28:52;9.90;99.90
4324;DHT22;2175;51.018;6.994;2022-11-18T16:31:19;9.80;99.90
4324;DHT22;2175;51.018;6.994;2022-11-18T16:34:07;9.90;99.90
4324;DHT22;2175;51.018;6.994;2022-11-18T16:36:34;9.90;99.90
4324;DHT22;2175;51.018;6.994;2022-11-18T16:39:20;9.80;99.90
4324;DHT22;2175;51.018;6.994;2022-11-18T16:41:51;10.00;99.90
4324;DHT22;2175;51.018;6.994;2022-11-18T16:44:17;10.00;99.90
4324;DHT22;2175;51.018;6.994;2022-11-18T16:46:54;10.10;99.90
4324;DHT22;2175;51.018;6.994;2022-11-18T16:49:22;10.10;99.90
4324;DHT22;2175;51.018;6.994;2022-11-18T16:51:50;10.00;99.90
4324;DHT22;2175;51.018;6.994;2022-11-18T16:54:25;9.90;99.90
4324;DHT22;2175;51.018;6.994;2022-11-18T16:56:52;9.80;99.90
4324;DHT22;2175;51.018;6.994;2022-11-18T16:59:25;9.90;99.90
4324;DHT22;2175;51.018;6.994;2022-11-18T17:01:52;10.00;99.90
4324;DHT22;2175;51.018;6.994;2022-11-18T17:04:20;10.00;99.90
4324;DHT22;2175;51.018;6.994;2022-11-18T17:06:46;9.90;99.90
4324;DHT22;2175;51.018;6.994;2022-11-18T17:09:14;9.90;99.90
4324;DHT22;2175;51.018;6.994;2022-11-18T17:11:40;10.00;99.90
4324;DHT22;2175;51.018;6.994;2022-11-18T17:14:05;10.10;99.90
4324;DHT22;2175;51.018;6.994;2022-11-18T17:16:31;10.00;99.90
4324;DHT22;2175;51.018;6.994;2022-11-18T17:18:58;9.80;99.90
4324;DHT22;2175;51.018;6.994;2022-11-18T17:21:25;9.80;99.90
4324;DHT22;2175;51.018;6.994;2022-11-18T17:23:52;9.70;99.90
4324;DHT22;2175;51.018;6.994;2022-11-18T17:26:20;9.70;99.90
4324;DHT22;2175;51.018;6.994;2022-11-18T17:28:46;9.80;99.90
4324;DHT22;2175;51.018;6.994;2022-11-18T17:31:13;9.80;99.90
4324;DHT22;2175;51.018;6.994;2022-11-18T17:33:40;9.80;99.90
4324;DHT22;2175;51.018;6.994;2022-11-18T17:36:10;9.90;99.90
4324;DHT22;2175;51.018;6.994;2022-11-18T17:38:38;9.90;99.90
4324;DHT22;2175;51.018;6.994;2022-11-18T17:41:06;10.00;99.90
4324;DHT22;2175;51.018;6.994;2022-11-18T17:43:33;10.10;99.90
4324;DHT22;2175;51.018;6.994;2022-11-18T17:46:00;10.10;99.90
4324;DHT22;2175;51.018;6.994;2022-11-18T17:48:27;10.10;99.90
4324;DHT22;2175;51.018;6.994;2022-11-18T17:50:53;10.20;99.90
4324;DHT22;2175;51.018;6.994;2022-11-18T17:53:19;10.30;99.90
4324;DHT22;2175;51.018;6.994;2022-11-18T17:55:46;10.30;99.90
4324;DHT22;2175;51.018;6.994;2022-11-18T17:58:12;10.30;99.90
4324;DHT22;2175;51.018;6.994;2022-11-18T18:00:38;10.30;99.90
4324;DHT22;2175;51.018;6.994;2022-11-18T18:03:05;10.20;99.90
4324;DHT22;2175;51.018;6.994;2022-11-18T18:05:31;10.10;99.90
4324;DHT22;2175;51.018;6.994;2022-11-18T18:07:57;10.10;99.90
4324;DHT22;2175;51.018;6.994;2022-11-18T18:10:24;10.10;99.90
4324;DHT22;2175;51.018;6.994;2022-11-18T18:12:50;10.10;99.90
4324;DHT22;2175;51.018;6.994;2022-11-18T18:15:35;10.10;99.90
4324;DHT22;2175;51.018;6.994;2022-11-18T18:18:01;10.20;99.90
4324;DHT22;2175;51.018;6.994;2022-11-18T18:20:26;10.20;99.90
4324;DHT22;2175;51.018;6.994;2022-11-18T18:22:53;10.30;99.90